SBRJ/SDU METAR and TAF weather

Enter ICAO airport designator
Station Type Date Time Source
SBRJ METAR 2021/07/28 02:00 UTC NOAA

SBRJ 280200Z 31005KT CAVOK 25/14 Q1009


Station Type Date Time Source
SBRJ Decoded METAR 2021/07/28 02:00 UTC NOAA

Rio De Janeiro Aeroporto , Brazil (SBRJ) 22-54S 043-10W
Jul 27, 2021 - 10:00 PM EDT / 2021.07.28 0200 UTC
Wind: from the NW (310 degrees) at 6 MPH (5 KT):0
Visibility: greater than 7 mile(s):0
Temperature: 77 F (25 C)
Dew Point: 57 F (14 C)
Relative Humidity: 50%
Pressure (altimeter): 29.80 in. Hg (1009 hPa)
ob: SBRJ 280200Z 31005KT CAVOK 25/14 Q1009
cycle: 2

Station Type Date Time Source
SBRJ TAF 2021/07/28 00:00 UTC NOAA

TAF SBRJ 272020Z 2800/2812 34005KT 9999 FEW035 TX25/2801Z TN18/2809Z
BECMG 2803/2805 24010KT SCT030 BKN045
BECMG 2808/2810 22017KT 7000 SCT017 BKN030
RMK PGB

Example: see airport list